Time;durP1;ratioP1;P1;durP2;ratioP2;P2;SDS_P1;SDS_P2;PMS_P1;PMS_P2;Temp;Humidity;BMP_temperature;BMP_pressure;BME280_temperature;BME280_humidity;BME280_pressure;Samples;Min_cycle;Max_cycle;Signal;HPM_P1;HPM_P2
2023/12/26 00:02:48;;;;;;;0.77;0.60;;;;;;;9.77;100.00;99920.88;6260098;28;20120;-69
2023/12/26 00:05:49;;;;;;;6.72;0.88;;;;;;;9.77;100.00;99914.81;6248924;28;20449;-70
2023/12/26 00:08:51;;;;;;;0.50;0.50;;;;;;;9.78;100.00;99909.44;6246974;28;20061;-70
2023/12/26 00:11:53;;;;;;;1.08;0.60;;;;;;;9.75;100.00;99906.16;6249284;28;20045;-69
2023/12/26 00:14:55;;;;;;;0.40;0.40;;;;;;;9.77;100.00;99910.38;6248897;28;20115;-70
2023/12/26 00:17:56;;;;;;;0.50;0.50;;;;;;;9.80;100.00;99897.06;6258038;28;20057;-70
2023/12/26 00:20:57;;;;;;;0.30;0.30;;;;;;;9.88;100.00;99896.56;6266979;28;20045;-70
2023/12/26 00:23:59;;;;;;;0.40;0.40;;;;;;;9.88;100.00;99888.69;6274386;28;20060;-70
2023/12/26 00:27:01;;;;;;;1.27;0.40;;;;;;;9.91;100.00;99880.63;6272263;28;20056;-70
2023/12/26 00:30:04;;;;;;;0.68;0.50;;;;;;;9.91;100.00;99875.41;6266807;28;20349;-70
2023/12/26 00:33:05;;;;;;;0.68;0.50;;;;;;;9.86;100.00;99864.34;6279039;28;20049;-70
2023/12/26 00:36:12;;;;;;;0.88;0.60;;;;;;;9.88;100.00;99871.16;6279172;28;20155;-70
2023/12/26 00:39:14;;;;;;;1.15;0.40;;;;;;;9.82;100.00;99879.44;6279259;28;20045;-71
2023/12/26 00:42:16;;;;;;;0.28;0.28;;;;;;;9.88;100.00;99881.66;6279610;28;20057;-70
2023/12/26 00:45:18;;;;;;;0.70;0.50;;;;;;;9.84;100.00;99880.19;6278868;28;20071;-70
2023/12/26 00:48:19;;;;;;;0.47;0.20;;;;;;;9.86;100.00;99869.59;6279203;28;20380;-70
2023/12/26 00:51:21;;;;;;;0.22;0.20;;;;;;;9.75;100.00;99861.56;6279153;28;20430;-71
2023/12/26 00:54:22;;;;;;;0.30;0.30;;;;;;;9.72;100.00;99873.13;6278636;28;20053;-70
2023/12/26 00:57:24;;;;;;;0.57;0.55;;;;;;;9.78;100.00;99864.00;6279090;28;20059;-70
2023/12/26 01:00:26;;;;;;;0.43;0.43;;;;;;;9.76;100.00;99856.22;6279009;28;20045;-69
2023/12/26 01:03:27;;;;;;;0.30;0.30;;;;;;;9.74;100.00;99875.63;6278765;28;20049;-69
2023/12/26 01:06:28;;;;;;;0.65;0.40;;;;;;;9.75;100.00;99866.81;6277913;28;20598;-70
2023/12/26 01:09:30;;;;;;;0.30;0.30;;;;;;;9.70;100.00;99872.34;6278870;28;20047;-71
2023/12/26 01:12:32;;;;;;;0.88;0.50;;;;;;;9.70;100.00;99868.88;6278363;28;20056;-71
2023/12/26 01:15:34;;;;;;;0.40;0.40;;;;;;;9.76;100.00;99871.09;6278160;28;20056;-70
2023/12/26 01:18:35;;;;;;;0.80;0.50;;;;;;;9.68;100.00;99868.16;6278521;28;20048;-71
2023/12/26 01:21:36;;;;;;;0.60;0.50;;;;;;;9.70;100.00;99879.38;6278096;28;20068;-70
2023/12/26 01:24:38;;;;;;;0.40;0.40;;;;;;;9.71;100.00;99875.81;6277884;28;20052;-70
2023/12/26 01:27:40;;;;;;;0.40;0.40;;;;;;;9.69;100.00;99875.09;6278574;28;20592;-71
2023/12/26 01:30:42;;;;;;;2.53;0.40;;;;;;;9.73;100.00;99877.41;6278197;28;20040;-70
2023/12/26 01:33:43;;;;;;;0.40;0.40;;;;;;;9.73;100.00;99880.03;6277938;28;20365;-70
2023/12/26 01:36:44;;;;;;;0.45;0.40;;;;;;;9.72;100.00;99874.88;6277560;28;20049;-70
2023/12/26 01:39:46;;;;;;;0.40;0.40;;;;;;;9.74;100.00;99873.00;6278382;28;20045;-70
2023/12/26 01:42:48;;;;;;;0.35;0.35;;;;;;;9.68;100.00;99871.63;6276701;28;20045;-71
2023/12/26 01:45:54;;;;;;;0.57;0.50;;;;;;;9.74;100.00;99875.63;6277352;28;20045;-70
2023/12/26 01:48:56;;;;;;;0.50;0.50;;;;;;;9.72;100.00;99875.75;6277908;28;20052;-70
2023/12/26 01:51:58;;;;;;;0.43;0.40;;;;;;;9.72;100.00;99880.13;6277522;28;20049;-70
2023/12/26 01:55:00;;;;;;;0.68;0.52;;;;;;;9.77;100.00;99865.78;6277426;28;20056;-70
2023/12/26 01:58:03;;;;;;;0.70;0.52;;;;;;;9.76;100.00;99873.72;6277557;28;20098;-70
2023/12/26 02:01:05;;;;;;;0.50;0.50;;;;;;;9.68;100.00;99878.66;6277563;28;20049;-70
2023/12/26 02:04:06;;;;;;;0.77;0.55;;;;;;;9.74;100.00;99881.72;6276543;28;20121;-71
2023/12/26 02:07:08;;;;;;;0.40;0.40;;;;;;;9.74;100.00;99884.34;6277218;28;20076;-70
2023/12/26 02:10:09;;;;;;;1.27;0.60;;;;;;;9.79;100.00;99884.03;6264166;28;20037;-70
2023/12/26 02:13:12;;;;;;;0.73;0.40;;;;;;;9.82;100.00;99881.22;6267717;28;20135;-70
2023/12/26 02:16:18;;;;;;;0.47;0.40;;;;;;;9.77;100.00;99880.69;6262446;28;20049;-69
2023/12/26 02:19:20;;;;;;;0.40;0.40;;;;;;;9.76;100.00;99873.72;6276856;28;20118;-69
2023/12/26 02:22:22;;;;;;;0.43;0.43;;;;;;;9.72;100.00;99882.75;6276937;28;20138;-69
2023/12/26 02:25:24;;;;;;;0.50;0.50;;;;;;;9.57;100.00;99879.31;6270877;28;20456;-69
2023/12/26 02:28:27;;;;;;;3.33;0.50;;;;;;;9.55;100.00;99899.56;6268719;28;20052;-69
2023/12/26 02:31:29;;;;;;;0.40;0.40;;;;;;;9.53;100.00;99883.91;6276485;28;20600;-69
2023/12/26 02:34:31;;;;;;;0.32;0.32;;;;;;;9.46;100.00;99890.50;6276287;28;20057;-69
2023/12/26 02:37:33;;;;;;;0.40;0.40;;;;;;;9.47;100.00;99893.94;6267722;28;20598;-69
2023/12/26 02:40:35;;;;;;;0.40;0.40;;;;;;;9.45;100.00;99886.19;6268004;28;20390;-69
2023/12/26 02:43:37;;;;;;;0.52;0.20;;;;;;;9.43;100.00;99874.94;6276269;28;20056;-69
2023/12/26 02:46:38;;;;;;;1.73;0.30;;;;;;;9.47;100.00;99886.91;6267200;28;20053;-69
2023/12/26 02:49:40;;;;;;;0.40;0.40;;;;;;;9.49;100.00;99889.44;6274133;28;20049;-69
2023/12/26 02:52:42;;;;;;;1.45;0.55;;;;;;;9.48;100.00;99878.09;6269569;28;20049;-69
2023/12/26 02:55:45;;;;;;;0.63;0.40;;;;;;;9.45;100.00;99887.94;6273939;28;20052;-69
2023/12/26 02:58:46;;;;;;;1.33;0.77;;;;;;;9.43;100.00;99885.41;6276162;28;20056;-69
2023/12/26 03:01:48;;;;;;;0.50;0.50;;;;;;;9.40;100.00;99885.59;6275721;28;20048;-69
2023/12/26 03:04:50;;;;;;;3.05;0.80;;;;;;;9.34;100.00;99906.97;6266176;28;20045;-70
2023/12/26 03:07:52;;;;;;;0.93;0.63;;;;;;;9.37;100.00;99902.38;6276023;28;20052;-69
2023/12/26 03:10:54;;;;;;;1.10;0.65;;;;;;;9.39;100.00;99907.53;6275858;28;20052;-69
2023/12/26 03:13:56;;;;;;;0.57;0.57;;;;;;;9.43;100.00;99905.56;6275848;28;20460;-69
2023/12/26 03:16:57;;;;;;;0.50;0.50;;;;;;;9.42;100.00;99907.34;6275297;28;20460;-69
2023/12/26 03:19:58;;;;;;;0.20;0.20;;;;;;;9.28;100.00;99895.09;6275698;28;20057;-69
2023/12/26 03:23:00;;;;;;;0.13;0.13;;;;;;;9.15;100.00;99883.66;6275644;28;20060;-70
2023/12/26 03:26:03;;;;;;;1.35;0.13;;;;;;;9.05;100.00;99895.66;6275095;28;20048;-69
2023/12/26 03:29:04;;;;;;;0.15;0.15;;;;;;;9.07;100.00;99893.78;6276059;28;20137;-70
2023/12/26 03:32:06;;;;;;;3.00;0.30;;;;;;;9.06;100.00;99910.44;6275424;28;20048;-70
2023/12/26 03:35:10;;;;;;;0.70;0.20;;;;;;;9.04;100.00;99912.31;6275209;28;20060;-70
2023/12/26 03:38:11;;;;;;;0.15;0.15;;;;;;;8.97;100.00;99932.81;6266349;28;20335;-70
2023/12/26 03:41:14;;;;;;;0.85;0.13;;;;;;;8.98;100.00;99937.09;6275283;28;20345;-69
2023/12/26 03:44:30;;;;;;;0.20;0.20;;;;;;;8.97;100.00;99938.03;6274601;28;20049;-70
2023/12/26 03:47:31;;;;;;;0.20;0.17;;;;;;;8.89;100.00;99938.47;6256367;28;20065;-69
2023/12/26 03:50:33;;;;;;;0.10;0.10;;;;;;;8.89;100.00;99940.28;6261664;28;20045;-69
2023/12/26 03:53:34;;;;;;;0.10;0.10;;;;;;;8.86;100.00;99943.09;6264370;28;20331;-71
2023/12/26 03:56:37;;;;;;;5.57;0.22;;;;;;;8.86;100.00;99927.38;6264724;28;20053;-70
2023/12/26 03:59:38;;;;;;;0.13;0.13;;;;;;;8.82;100.00;99920.63;6257033;28;20060;-70
2023/12/26 04:02:40;;;;;;;0.10;0.10;;;;;;;8.84;100.00;99929.22;6250181;28;20045;-70
2023/12/26 04:05:42;;;;;;;1.60;0.55;;;;;;;8.81;100.00;99958.22;6256801;28;20136;-70
2023/12/26 04:08:43;;;;;;;0.60;0.20;;;;;;;8.82;100.00;99968.63;6270450;28;20056;-70
2023/12/26 04:11:46;;;;;;;4.63;0.52;;;;;;;8.85;100.00;99942.22;6271544;28;20045;-70
2023/12/26 04:14:48;;;;;;;0.10;0.10;;;;;;;8.81;100.00;99956.47;6265396;28;20052;-71
2023/12/26 04:17:49;;;;;;;0.35;0.20;;;;;;;8.78;100.00;99961.03;6269998;28;20441;-70
2023/12/26 04:20:50;;;;;;;0.40;0.30;;;;;;;8.81;100.00;99972.19;6270324;28;20056;-71
2023/12/26 04:23:52;;;;;;;0.38;0.20;;;;;;;8.79;100.00;99979.28;6275976;28;20056;-71
2023/12/26 04:26:54;;;;;;;3.10;0.35;;;;;;;8.78;100.00;99976.75;6254555;28;20462;-70
2023/12/26 04:29:56;;;;;;;0.50;0.30;;;;;;;8.75;100.00;99993.47;6254642;28;20060;-71
2023/12/26 04:32:57;;;;;;;0.60;0.43;;;;;;;8.85;100.00;100006.88;6254615;28;20060;-70
2023/12/26 04:35:58;;;;;;;0.63;0.40;;;;;;;8.91;100.00;100003.09;6261251;28;20053;-69
2023/12/26 04:39:00;;;;;;;0.70;0.50;;;;;;;8.85;100.00;100022.59;6262490;28;20056;-70
2023/12/26 04:42:02;;;;;;;3.40;0.43;;;;;;;8.95;100.00;100017.66;6254601;28;20481;-70
2023/12/26 04:45:04;;;;;;;2.03;0.68;;;;;;;8.93;100.00;100017.75;6253210;28;20349;-70
2023/12/26 04:48:07;;;;;;;0.43;0.38;;;;;;;8.99;100.00;100016.56;6254704;28;20049;-69
2023/12/26 04:51:15;;;;;;;2.25;0.88;;;;;;;8.99;100.00;100016.56;6254411;28;20045;-70
2023/12/26 04:54:16;;;;;;;1.05;0.50;;;;;;;8.98;100.00;100015.72;6253426;28;20354;-69
2023/12/26 04:57:19;;;;;;;0.88;0.57;;;;;;;8.93;100.00;100025.63;6254355;28;20354;-69
2023/12/26 05:00:21;;;;;;;1.35;0.40;;;;;;;8.89;100.00;100018.88;6253571;28;20050;-69
2023/12/26 05:03:24;;;;;;;3.22;0.63;;;;;;;8.86;100.00;100022.53;6265363;28;20049;-70
2023/12/26 05:06:26;;;;;;;1.80;0.57;;;;;;;8.89;100.00;100040.69;6273625;28;20057;-69
2023/12/26 05:09:27;;;;;;;2.25;0.80;;;;;;;8.81;100.00;100034.19;6254203;28;20045;-70
2023/12/26 05:12:30;;;;;;;1.67;0.80;;;;;;;8.78;100.00;100037.84;6253724;28;20056;-70
2023/12/26 05:15:31;;;;;;;8.45;1.65;;;;;;;8.75;100.00;100048.50;6252764;28;20365;-69
2023/12/26 05:18:32;;;;;;;1.40;0.63;;;;;;;8.74;100.00;100057.28;6253328;28;20136;-69
2023/12/26 05:21:34;;;;;;;0.90;0.70;;;;;;;8.72;100.00;100060.91;6253499;28;20049;-70
2023/12/26 05:24:35;;;;;;;4.00;0.88;;;;;;;8.70;100.00;100065.41;6253212;28;20060;-70
2023/12/26 05:27:38;;;;;;;6.63;0.88;;;;;;;8.83;100.00;100074.25;6253848;28;20187;-71
2023/12/26 05:30:39;;;;;;;1.45;0.68;;;;;;;8.80;100.00;100072.66;6253502;28;20061;-70
2023/12/26 05:33:41;;;;;;;2.75;0.85;;;;;;;8.73;100.00;100080.97;6253188;28;20053;-69
2023/12/26 05:36:42;;;;;;;5.78;1.20;;;;;;;8.68;100.00;100085.63;6252853;28;20053;-70
2023/12/26 05:39:44;;;;;;;6.88;1.05;;;;;;;8.74;100.00;100090.50;6253146;28;20049;-70
2023/12/26 05:42:48;;;;;;;6.75;1.05;;;;;;;8.71;100.00;100101.13;6252939;28;20143;-69
2023/12/26 05:45:49;;;;;;;2.65;0.70;;;;;;;8.78;100.00;100140.00;6252632;28;20132;-70
2023/12/26 05:48:51;;;;;;;8.98;0.60;;;;;;;8.93;100.00;100121.75;6253055;28;20049;-70
2023/12/26 05:51:52;;;;;;;3.38;0.45;;;;;;;8.79;100.00;100136.47;6252772;28;20076;-69
2023/12/26 05:54:55;;;;;;;2.88;0.57;;;;;;;8.51;100.00;100133.69;6252741;28;20472;-69
2023/12/26 05:57:57;;;;;;;2.03;0.73;;;;;;;8.38;100.00;100134.34;6268962;28;20068;-69
2023/12/26 06:00:59;;;;;;;1.80;0.30;;;;;;;8.26;100.00;100127.09;6277693;28;20568;-70
2023/12/26 06:04:00;;;;;;;6.78;0.65;;;;;;;8.23;100.00;100137.75;6277453;28;20084;-69
2023/12/26 06:07:01;;;;;;;6.03;0.50;;;;;;;8.26;100.00;100153.28;6268970;28;20049;-70
2023/12/26 06:10:04;;;;;;;2.50;0.47;;;;;;;8.22;100.00;100162.25;6260313;28;20050;-71
2023/12/26 06:13:06;;;;;;;5.32;0.77;;;;;;;8.20;100.00;100171.94;6268632;28;20063;-70
2023/12/26 06:16:08;;;;;;;7.97;0.98;;;;;;;8.21;100.00;100170.16;6264687;28;20452;-71
2023/12/26 06:19:10;;;;;;;1.98;0.60;;;;;;;8.08;100.00;100197.00;6277269;28;20048;-71
2023/12/26 06:22:11;;;;;;;9.52;0.95;;;;;;;8.04;100.00;100205.06;6268088;28;20345;-71
2023/12/26 06:25:13;;;;;;;8.73;1.08;;;;;;;7.99;100.00;100202.66;6268858;28;20053;-71
2023/12/26 06:28:15;;;;;;;6.35;0.90;;;;;;;7.96;100.00;100209.84;6275027;28;20322;-70
2023/12/26 06:31:18;;;;;;;4.75;0.70;;;;;;;7.98;100.00;100206.22;6275632;28;20045;-72
2023/12/26 06:34:19;;;;;;;5.07;0.88;;;;;;;7.93;100.00;100217.84;6275215;28;20141;-70
2023/12/26 06:37:21;;;;;;;7.03;1.27;;;;;;;7.94;100.00;100224.78;6275472;28;20049;-70
2023/12/26 06:40:22;;;;;;;12.60;0.90;;;;;;;7.89;100.00;100223.22;6273259;28;20049;-70
2023/12/26 06:43:25;;;;;;;8.65;0.88;;;;;;;7.83;100.00;100233.16;6249867;28;20132;-69
2023/12/26 06:46:26;;;;;;;3.78;0.80;;;;;;;7.81;100.00;100240.22;6249487;28;20331;-70
2023/12/26 06:49:28;;;;;;;5.53;0.70;;;;;;;7.80;100.00;100238.53;6250243;28;20056;-69
2023/12/26 06:52:29;;;;;;;2.90;0.77;;;;;;;7.77;100.00;100244.78;6247198;28;20049;-69
2023/12/26 06:55:30;;;;;;;2.58;0.70;;;;;;;7.72;100.00;100270.34;6249773;28;20053;-70
2023/12/26 06:58:33;;;;;;;6.00;0.73;;;;;;;7.77;100.00;100255.25;6249792;28;20678;-70
2023/12/26 07:01:35;;;;;;;2.55;0.47;;;;;;;7.67;100.00;100268.84;6254531;28;20052;-69
2023/12/26 07:04:36;;;;;;;6.05;0.93;;;;;;;7.72;100.00;100285.16;6261490;28;20053;-69
2023/12/26 07:07:38;;;;;;;9.05;0.93;;;;;;;7.70;100.00;100285.25;6260720;28;20124;-69
2023/12/26 07:10:39;;;;;;;5.13;0.60;;;;;;;7.66;100.00;100291.53;6259757;28;20061;-70
2023/12/26 07:13:42;;;;;;;5.38;1.02;;;;;;;7.51;100.00;100300.13;6263328;28;20342;-69
2023/12/26 07:16:43;;;;;;;2.72;0.65;;;;;;;7.49;100.00;100302.78;6274409;28;20049;-69
2023/12/26 07:19:44;;;;;;;8.70;1.60;;;;;;;7.50;100.00;100312.34;6240096;28;993548;-69
2023/12/26 07:22:46;;;;;;;9.07;1.10;;;;;;;7.51;100.00;100318.44;6275585;28;20045;-69
2023/12/26 07:25:47;;;;;;;1.65;0.50;;;;;;;7.45;100.00;100330.03;6268605;28;20041;-70
2023/12/26 07:28:50;;;;;;;3.67;0.77;;;;;;;7.44;100.00;100328.31;6267367;28;20130;-69
2023/12/26 07:31:52;;;;;;;4.55;1.08;;;;;;;7.38;100.00;100326.00;6275260;28;20040;-69
2023/12/26 07:34:54;;;;;;;9.40;0.68;;;;;;;7.41;100.00;100336.31;6275243;28;20053;-69
2023/12/26 07:37:55;;;;;;;4.72;0.77;;;;;;;7.41;100.00;100346.78;6275184;28;20053;-70
2023/12/26 07:40:56;;;;;;;4.43;0.75;;;;;;;7.41;100.00;100349.41;6275178;28;20045;-69
2023/12/26 07:44:00;;;;;;;6.18;0.82;;;;;;;7.38;100.00;100367.81;6274974;28;20045;-70
2023/12/26 07:47:02;;;;;;;7.78;0.55;;;;;;;7.37;100.00;100364.38;6272089;28;20049;-70
2023/12/26 07:50:04;;;;;;;9.57;0.95;;;;;;;7.36;100.00;100367.91;6250395;28;20362;-70
2023/12/26 07:53:05;;;;;;;7.57;1.30;;;;;;;7.31;100.00;100369.00;6250241;28;20045;-69
2023/12/26 07:56:07;;;;;;;2.92;0.75;;;;;;;7.32;100.00;100373.34;6250115;28;20056;-69
2023/12/26 07:59:10;;;;;;;3.25;0.60;;;;;;;7.32;100.00;100381.19;6250299;28;20331;-68
2023/12/26 08:02:11;;;;;;;4.28;0.90;;;;;;;7.41;100.00;100383.38;6250171;28;20057;-69
2023/12/26 08:05:12;;;;;;;1.48;0.60;;;;;;;7.42;100.00;100385.06;6249919;28;20057;-68
2023/12/26 08:08:14;;;;;;;8.18;1.63;;;;;;;7.41;100.00;100403.44;6259691;28;20363;-68
2023/12/26 08:11:15;;;;;;;3.03;0.55;;;;;;;7.34;100.00;100418.53;6265327;28;20041;-69
2023/12/26 08:14:18;;;;;;;1.95;0.52;;;;;;;7.42;100.00;100416.44;6259845;28;20049;-69
2023/12/26 08:17:20;;;;;;;4.85;0.95;;;;;;;7.47;100.00;100424.06;6270381;28;20076;-69
2023/12/26 08:20:21;;;;;;;4.68;0.80;;;;;;;7.55;100.00;100424.56;6268881;28;20133;-69
2023/12/26 08:23:22;;;;;;;6.38;1.40;;;;;;;7.57;100.00;100434.03;6274555;28;20041;-68
2023/12/26 08:26:30;;;;;;;4.25;0.70;;;;;;;7.65;100.00;100420.59;6274353;28;20049;-69
2023/12/26 08:29:33;;;;;;;5.47;1.83;;;;;;;7.68;100.00;100444.00;6274848;28;20136;-69
2023/12/26 08:32:34;;;;;;;7.50;1.00;;;;;;;7.72;100.00;100429.00;6266035;28;20045;-69
2023/12/26 08:35:36;;;;;;;5.20;0.98;;;;;;;7.79;100.00;100443.50;6270483;28;20053;-69
2023/12/26 08:38:39;;;;;;;7.65;0.77;;;;;;;7.83;100.00;100452.91;6274357;28;20052;-70
2023/12/26 08:41:40;;;;;;;15.45;1.52;;;;;;;7.91;100.00;100456.03;6273615;28;20041;-68
2023/12/26 08:44:44;;;;;;;8.68;1.30;;;;;;;8.01;100.00;100459.03;6247847;28;20457;-69
2023/12/26 08:47:46;;;;;;;6.47;1.00;;;;;;;8.06;100.00;100467.53;6244528;28;20541;-70
2023/12/26 08:50:47;;;;;;;5.85;1.83;;;;;;;8.21;100.00;100464.16;6247694;28;20466;-69
2023/12/26 08:53:49;;;;;;;4.60;0.82;;;;;;;8.14;100.00;100471.47;6247741;28;20448;-70
2023/12/26 08:56:50;;;;;;;4.18;0.85;;;;;;;8.09;100.00;100472.63;6251728;28;20426;-69
2023/12/26 08:59:53;;;;;;;8.98;0.85;;;;;;;8.08;100.00;100466.53;6253832;28;20064;-68
2023/12/26 09:02:54;;;;;;;6.32;1.20;;;;;;;8.16;100.00;100475.78;6253785;28;20052;-70
2023/12/26 09:05:56;;;;;;;5.60;1.33;;;;;;;8.21;100.00;100473.78;6253140;28;20046;-70
2023/12/26 09:08:57;;;;;;;4.05;1.35;;;;;;;8.20;100.00;100478.19;6248066;28;20430;-70
2023/12/26 09:11:59;;;;;;;8.70;1.38;;;;;;;8.19;100.00;100489.59;6249087;28;20320;-70
2023/12/26 09:15:02;;;;;;;3.85;0.68;;;;;;;8.31;100.00;100482.88;6261426;28;20124;-70
2023/12/26 09:18:04;;;;;;;3.70;1.60;;;;;;;8.30;100.00;100496.91;6253807;28;20049;-69
2023/12/26 09:21:05;;;;;;;4.55;0.90;;;;;;;8.29;100.00;100508.31;6253847;28;20053;-70
2023/12/26 09:24:07;;;;;;;1.63;0.80;;;;;;;8.36;100.00;100520.19;6262337;28;20045;-75
2023/12/26 09:27:08;;;;;;;1.55;0.60;;;;;;;8.40;100.00;100521.75;6245879;28;20049;-71
2023/12/26 09:30:13;;;;;;;2.20;0.65;;;;;;;8.34;100.00;100516.78;6250194;28;20050;-70
2023/12/26 09:33:14;;;;;;;4.78;1.00;;;;;;;8.35;100.00;100515.84;6266769;28;20049;-69
2023/12/26 09:36:16;;;;;;;7.35;0.85;;;;;;;8.45;100.00;100524.16;6275934;28;20103;-71
2023/12/26 09:39:18;;;;;;;4.45;1.08;;;;;;;8.51;100.00;100544.84;6258460;28;20442;-69
2023/12/26 09:42:22;;;;;;;5.53;0.73;;;;;;;8.51;100.00;100542.22;6244399;28;20054;-69
2023/12/26 09:45:27;;;;;;;5.75;0.82;;;;;;;8.45;100.00;100558.19;6246602;28;20073;-68
2023/12/26 09:48:28;;;;;;;4.30;1.10;;;;;;;8.54;100.00;100547.28;6250780;28;20045;-69
2023/12/26 09:51:33;;;;;;;8.57;0.80;;;;;;;8.47;100.00;100559.84;6263007;28;20466;-68
2023/12/26 09:54:35;;;;;;;2.80;1.17;;;;;;;8.52;100.00;100557.84;6249717;28;20053;-69
2023/12/26 09:57:38;;;;;;;5.78;0.90;;;;;;;8.59;100.00;100574.13;6263383;28;20041;-69
2023/12/26 10:00:42;;;;;;;1.58;0.60;;;;;;;8.48;100.00;100561.53;6241802;28;20052;-69
2023/12/26 10:03:46;;;;;;;2.92;0.77;;;;;;;8.55;100.00;100572.56;6248357;28;20049;-70
2023/12/26 10:06:47;;;;;;;7.90;1.02;;;;;;;8.53;100.00;100590.97;6247136;28;20045;-69
2023/12/26 10:09:49;;;;;;;3.55;0.75;;;;;;;8.58;100.00;100602.09;6264774;28;20044;-68
2023/12/26 10:12:51;;;;;;;5.47;0.88;;;;;;;8.51;100.00;100613.75;6258449;28;20067;-69
2023/12/26 10:15:54;;;;;;;5.57;0.88;;;;;;;8.61;100.00;100603.69;6246812;28;20046;-69
2023/12/26 10:18:55;;;;;;;3.20;0.63;;;;;;;8.58;100.00;100607.34;6247421;28;20244;-70
2023/12/26 10:21:57;;;;;;;2.83;0.77;;;;;;;8.60;100.00;100628.19;6250309;28;20464;-69
2023/12/26 10:25:00;;;;;;;3.65;0.75;;;;;;;8.60;100.00;100618.56;6252006;28;20053;-69
2023/12/26 10:28:01;;;;;;;4.47;1.27;;;;;;;8.58;100.00;100630.91;6257984;28;20052;-69
2023/12/26 10:31:13;;;;;;;11.05;1.35;;;;;;;8.61;100.00;100625.50;6267252;28;20344;-70
2023/12/26 10:34:16;;;;;;;3.40;0.70;;;;;;;8.66;100.00;100620.03;6236912;28;20055;-70
2023/12/26 10:37:20;;;;;;;7.78;1.13;;;;;;;8.77;100.00;100630.88;6266194;28;20365;-71
2023/12/26 10:40:22;;;;;;;7.63;1.77;;;;;;;8.79;100.00;100642.13;6252058;28;20045;-70
2023/12/26 10:43:24;;;;;;;11.90;1.15;;;;;;;8.77;100.00;100641.38;6251682;28;20460;-69
2023/12/26 10:46:27;;;;;;;6.95;0.98;;;;;;;8.78;100.00;100640.44;6262313;28;20053;-70
2023/12/26 10:49:30;;;;;;;3.80;0.60;;;;;;;8.73;100.00;100642.44;6276563;28;20057;-70
2023/12/26 10:52:31;;;;;;;9.77;0.95;;;;;;;8.80;100.00;100635.94;6276510;28;20052;-70
2023/12/26 10:55:34;;;;;;;7.60;1.15;;;;;;;8.72;100.00;100635.50;6276112;28;20449;-69
2023/12/26 10:58:36;;;;;;;3.50;0.82;;;;;;;8.69;100.00;100640.88;6276193;28;20094;-71
2023/12/26 11:01:38;;;;;;;6.75;1.00;;;;;;;8.64;100.00;100632.38;6273460;28;20056;-69
2023/12/26 11:04:40;;;;;;;10.13;1.80;;;;;;;8.61;100.00;100640.38;6256498;28;20046;-69
2023/12/26 11:07:40;;;;;;;5.28;0.88;;;;;;;8.64;100.00;100642.84;6264866;28;20049;-70
2023/12/26 11:10:41;;;;;;;6.85;1.15;;;;;;;8.65;100.00;100644.56;6272665;28;20361;-70
2023/12/26 11:13:42;;;;;;;3.55;1.25;;;;;;;8.61;100.00;100646.47;6259697;28;20053;-68
2023/12/26 11:16:45;;;;;;;4.97;1.20;;;;;;;8.64;100.00;100671.69;6250735;28;20069;-70
2023/12/26 11:19:46;;;;;;;5.63;1.52;;;;;;;8.56;100.00;100645.81;6240777;28;20456;-68
2023/12/26 11:22:47;;;;;;;4.60;1.27;;;;;;;8.64;100.00;100656.81;6239750;28;20041;-70
2023/12/26 11:25:48;;;;;;;17.95;1.27;;;;;;;8.66;100.00;100664.56;6255534;28;20052;-69
2023/12/26 11:28:50;;;;;;;5.35;1.08;;;;;;;8.67;100.00;100674.13;6255429;28;20073;-68
2023/12/26 11:31:53;;;;;;;8.93;1.10;;;;;;;8.76;100.00;100675.47;6257041;28;20041;-70
2023/12/26 11:34:54;;;;;;;4.53;1.23;;;;;;;8.80;100.00;100684.88;6237360;28;20046;-69
2023/12/26 11:37:55;;;;;;;12.48;2.63;;;;;;;8.84;100.00;100689.06;6258727;28;20052;-70
2023/12/26 11:40:57;;;;;;;10.57;2.03;;;;;;;8.86;100.00;100690.72;6265773;28;20048;-69
2023/12/26 11:43:57;;;;;;;6.75;0.80;;;;;;;8.86;100.00;100689.88;6263228;28;20049;-69
2023/12/26 11:47:00;;;;;;;9.57;1.40;;;;;;;8.82;100.00;100690.94;6255012;28;20048;-69
2023/12/26 11:50:00;;;;;;;1.92;0.90;;;;;;;8.88;100.00;100688.84;6240493;28;20046;-67
2023/12/26 11:53:02;;;;;;;2.92;1.08;;;;;;;9.04;100.00;100688.16;6252322;28;20049;-68
2023/12/26 11:56:03;;;;;;;7.38;1.15;;;;;;;9.04;100.00;100696.00;6256367;28;20049;-69
2023/12/26 11:59:04;;;;;;;6.22;0.60;;;;;;;9.12;100.00;100681.59;6254253;28;20045;-71
2023/12/26 12:02:06;;;;;;;11.55;1.15;;;;;;;9.23;100.00;100703.84;6264372;28;20075;-71
2023/12/26 12:05:07;;;;;;;6.47;0.80;;;;;;;9.32;100.00;100698.13;6251446;28;20160;-69
2023/12/26 12:08:10;;;;;;;5.55;0.70;;;;;;;9.23;100.00;100706.44;6255513;28;20437;-67
2023/12/26 12:11:13;;;;;;;6.82;1.13;;;;;;;9.09;100.00;100709.75;6247419;28;20042;-68
2023/12/26 12:14:15;;;;;;;3.97;0.68;;;;;;;9.06;100.00;100713.34;6250622;28;20049;-68
2023/12/26 12:17:17;;;;;;;11.65;1.58;;;;;;;8.96;100.00;100706.84;6258670;28;20053;-68
2023/12/26 12:20:18;;;;;;;8.38;0.95;;;;;;;8.93;100.00;100708.75;6255794;28;20088;-71
2023/12/26 12:23:20;;;;;;;9.25;1.63;;;;;;;8.92;100.00;100701.81;6248606;28;20046;-73
2023/12/26 12:26:20;;;;;;;8.85;1.00;;;;;;;8.90;100.00;100730.69;6251395;28;20049;-73
2023/12/26 12:29:21;;;;;;;12.30;1.10;;;;;;;8.90;100.00;100707.13;6257079;28;20060;-69
2023/12/26 12:32:29;;;;;;;10.68;1.10;;;;;;;8.76;100.00;100714.78;6271891;28;20072;-68
2023/12/26 12:35:31;;;;;;;9.30;1.88;;;;;;;8.78;100.00;100716.41;6278702;28;20361;-68
2023/12/26 12:38:32;;;;;;;5.40;0.82;;;;;;;8.79;100.00;100730.38;6277996;28;20075;-68
2023/12/26 12:41:34;;;;;;;6.03;0.90;;;;;;;8.71;100.00;100727.25;6278196;28;20057;-68
2023/12/26 12:44:34;;;;;;;8.90;1.33;;;;;;;8.68;100.00;100719.53;6278804;28;20364;-68
2023/12/26 12:47:38;;;;;;;14.15;1.38;;;;;;;8.70;100.00;100721.16;6279600;28;20080;-69
2023/12/26 12:50:39;;;;;;;11.98;1.10;;;;;;;8.82;100.00;100741.56;6279317;28;20559;-69
2023/12/26 12:53:41;;;;;;;8.40;1.02;;;;;;;9.06;100.00;100725.59;6279351;28;20060;-69
2023/12/26 12:56:41;;;;;;;5.88;1.17;;;;;;;8.89;100.00;100724.63;6278580;28;20349;-67
2023/12/26 12:59:42;;;;;;;9.32;1.42;;;;;;;8.95;100.00;100746.22;6279312;28;20084;-69
2023/12/26 13:02:44;;;;;;;4.32;0.73;;;;;;;9.02;100.00;100747.63;6278963;28;20052;-68
2023/12/26 13:05:45;;;;;;;3.95;0.93;;;;;;;8.95;100.00;100743.59;6278381;28;20471;-69
2023/12/26 13:08:46;;;;;;;3.63;1.10;;;;;;;8.87;100.00;100754.44;6279060;28;20049;-68
2023/12/26 13:11:47;;;;;;;11.52;1.30;;;;;;;8.84;100.00;100754.59;6278677;28;20064;-67
2023/12/26 13:14:48;;;;;;;6.68;1.10;;;;;;;8.86;100.00;100756.22;6278448;28;20051;-68
2023/12/26 13:17:50;;;;;;;10.45;1.83;;;;;;;8.88;100.00;100772.72;6278787;28;20358;-67
2023/12/26 13:20:51;;;;;;;3.45;0.73;;;;;;;8.81;100.00;100775.69;6278554;28;20074;-68
2023/12/26 13:23:52;;;;;;;11.45;1.38;;;;;;;8.88;100.00;100784.97;6278321;28;20041;-68
2023/12/26 13:26:52;;;;;;;11.63;1.45;;;;;;;8.92;100.00;100777.81;6278467;28;20140;-68
2023/12/26 13:29:54;;;;;;;6.05;0.90;;;;;;;8.87;100.00;100786.75;6278544;28;20498;-68
2023/12/26 13:32:55;;;;;;;9.10;1.40;;;;;;;8.86;100.00;100799.94;6278410;28;20057;-68
2023/12/26 13:36:01;;;;;;;3.38;1.33;;;;;;;9.00;100.00;100794.91;6277932;28;20049;-67
2023/12/26 13:39:01;;;;;;;12.70;1.75;;;;;;;8.83;100.00;100800.06;6278012;28;20353;-66
2023/12/26 13:42:03;;;;;;;6.60;1.13;;;;;;;8.96;100.00;100792.50;6278162;28;20081;-67
2023/12/26 13:45:12;;;;;;;6.75;1.17;;;;;;;8.97;100.00;100789.78;6277175;28;20592;-67
2023/12/26 13:48:15;;;;;;;4.00;1.00;;;;;;;9.00;100.00;100791.44;6278173;28;20464;-67
2023/12/26 13:51:15;;;;;;;9.90;1.50;;;;;;;8.90;100.00;100793.59;6277934;28;20055;-67
2023/12/26 13:54:16;;;;;;;6.80;0.90;;;;;;;9.00;100.00;100800.16;6277413;28;20072;-68
2023/12/26 13:57:18;;;;;;;4.63;0.98;;;;;;;8.97;100.00;100800.28;6277827;28;20056;-69
2023/12/26 14:00:19;;;;;;;5.60;1.00;;;;;;;8.92;100.00;100811.91;6277667;28;20357;-68
2023/12/26 14:03:22;;;;;;;16.00;3.10;;;;;;;8.76;100.00;100820.44;6277463;28;20049;-68
2023/12/26 14:06:23;;;;;;;5.20;1.00;;;;;;;8.79;100.00;100817.69;6276928;28;20438;-67
2023/12/26 14:09:25;;;;;;;14.07;1.10;;;;;;;8.59;100.00;100826.44;6277450;28;20049;-67